Time;durP1;ratioP1;P1;durP2;ratioP2;P2;SDS_P1;SDS_P2;PMS_P1;PMS_P2;Temp;Humidity;BMP_temperature;BMP_pressure;BME280_temperature;BME280_humidity;BME280_pressure;Samples;Min_cycle;Max_cycle;Signal;HPM_P1;HPM_P2
2023/01/14 00:03:47;;;;;;;55.50;38.75;;;;;;;;;;10207574;28;20052;-67
2023/01/14 00:08:47;;;;;;;28.75;21.20;;;;;;;;;;10211645;28;20080;-67
2023/01/14 00:13:46;;;;;;;53.92;37.22;;;;;;;;;;10208279;28;20070;-67
2023/01/14 00:18:44;;;;;;;43.28;31.65;;;;;;;;;;10208746;28;20080;-67
2023/01/14 00:23:42;;;;;;;32.65;24.15;;;;;;;;;;10209515;28;20069;-68
2023/01/14 00:28:42;;;;;;;29.90;24.33;;;;;;;;;;10215862;28;20539;-68
2023/01/14 00:33:41;;;;;;;22.23;18.38;;;;;;;;;;10217701;28;20053;-67
2023/01/14 00:38:41;;;;;;;21.73;16.10;;;;;;;;;;10213557;28;20061;-67
2023/01/14 00:43:43;;;;;;;23.98;15.90;;;;;;;;;;10219014;28;20072;-67
2023/01/14 00:48:42;;;;;;;29.05;17.45;;;;;;;;;;10219774;28;20073;-68
2023/01/14 00:53:40;;;;;;;21.30;14.80;;;;;;;;;;10214603;28;20081;-67
2023/01/14 00:58:40;;;;;;;29.10;18.13;;;;;;;;;;10220224;28;20080;-67
2023/01/14 01:03:40;;;;;;;23.42;15.30;;;;;;;;;;10222385;28;20080;-67
2023/01/14 01:08:39;;;;;;;22.38;14.98;;;;;;;;;;10213640;28;20660;-68
2023/01/14 01:13:37;;;;;;;23.33;16.13;;;;;;;;;;10218803;28;20049;-67
2023/01/14 01:18:37;;;;;;;32.00;20.60;;;;;;;;;;10211228;28;20077;-67
2023/01/14 01:23:40;;;;;;;26.55;16.75;;;;;;;;;;10209016;28;20072;-68
2023/01/14 01:28:40;;;;;;;34.85;21.65;;;;;;;;;;10213670;28;20523;-67
2023/01/14 01:33:38;;;;;;;31.08;19.08;;;;;;;;;;10214150;28;20065;-66
2023/01/14 01:38:38;;;;;;;27.92;17.17;;;;;;;;;;10214114;28;20072;-67
2023/01/14 01:43:36;;;;;;;31.58;18.00;;;;;;;;;;10215143;28;20438;-67
2023/01/14 01:48:36;;;;;;;26.98;17.15;;;;;;;;;;10210440;28;20076;-67
2023/01/14 01:53:36;;;;;;;24.00;14.55;;;;;;;;;;10213080;28;20077;-67
2023/01/14 01:58:37;;;;;;;29.38;15.52;;;;;;;;;;10210531;28;20739;-66
2023/01/14 02:03:36;;;;;;;27.92;16.08;;;;;;;;;;10211422;28;20510;-68
2023/01/14 02:08:36;;;;;;;23.92;16.30;;;;;;;;;;10218060;28;20530;-68
2023/01/14 02:13:46;;;;;;;47.38;24.30;;;;;;;;;;10210681;28;20069;-68
2023/01/14 02:18:55;;;;;;;35.90;17.27;;;;;;;;;;10215987;28;20058;-68
2023/01/14 02:24:10;;;;;;;35.42;16.05;;;;;;;;;;10210024;28;20552;-68
2023/01/14 02:29:34;;;;;;;27.13;15.10;;;;;;;;;;10213485;28;20085;-67
2023/01/14 02:34:36;;;;;;;21.70;13.50;;;;;;;;;;10215661;28;20751;-68
2023/01/14 02:39:37;;;;;;;31.15;12.57;;;;;;;;;;10217909;28;20079;-67
2023/01/14 02:44:40;;;;;;;21.88;12.77;;;;;;;;;;10209570;28;20076;-67
2023/01/14 02:49:41;;;;;;;19.55;11.38;;;;;;;;;;10208165;28;20073;-67
2023/01/14 02:54:41;;;;;;;41.22;11.88;;;;;;;;;;10212078;28;20081;-67
2023/01/14 02:59:47;;;;;;;26.38;12.80;;;;;;;;;;10208952;28;20057;-67
2023/01/14 03:04:52;;;;;;;24.40;13.02;;;;;;;;;;10209069;28;20069;-67
2023/01/14 03:09:59;;;;;;;33.08;13.60;;;;;;;;;;10210062;28;20076;-67
2023/01/14 03:15:00;;;;;;;27.13;15.27;;;;;;;;;;10211437;28;20117;-67
2023/01/14 03:20:01;;;;;;;36.45;14.45;;;;;;;;;;10208627;28;20088;-67
2023/01/14 03:25:03;;;;;;;21.65;12.13;;;;;;;;;;10210924;28;20077;-67
2023/01/14 03:30:06;;;;;;;30.65;12.05;;;;;;;;;;10209470;28;20116;-66
2023/01/14 03:35:06;;;;;;;31.05;13.60;;;;;;;;;;10205821;28;20077;-68
2023/01/14 03:40:08;;;;;;;26.25;13.25;;;;;;;;;;10205660;28;20504;-67
2023/01/14 03:45:11;;;;;;;30.65;14.13;;;;;;;;;;10208771;28;20537;-67
2023/01/14 03:50:12;;;;;;;72.43;41.38;;;;;;;;;;10205752;28;20116;-68
2023/01/14 03:55:16;;;;;;;28.50;17.55;;;;;;;;;;10206184;28;20084;-66
2023/01/14 04:00:19;;;;;;;49.42;24.10;;;;;;;;;;10208848;28;20077;-67
2023/01/14 04:05:17;;;;;;;41.88;22.77;;;;;;;;;;10213845;28;20083;-67
2023/01/14 04:10:17;;;;;;;28.27;15.55;;;;;;;;;;10215436;28;20475;-67
2023/01/14 04:15:22;;;;;;;29.02;16.95;;;;;;;;;;10209068;28;20080;-68
2023/01/14 04:20:21;;;;;;;38.78;20.02;;;;;;;;;;10213354;28;20503;-67
2023/01/14 04:25:19;;;;;;;25.30;13.75;;;;;;;;;;10215497;28;20452;-68
2023/01/14 04:30:19;;;;;;;26.45;11.88;;;;;;;;;;10176300;28;1131740;-67
2023/01/14 04:35:17;;;;;;;27.75;15.35;;;;;;;;;;10214776;28;20049;-67
2023/01/14 04:40:15;;;;;;;34.65;13.60;;;;;;;;;;10213555;28;20069;-66
2023/01/14 04:45:14;;;;;;;43.63;23.50;;;;;;;;;;10214636;28;20069;-67
2023/01/14 04:50:34;;;;;;;23.35;13.48;;;;;;;;;;10214045;28;20084;-67
2023/01/14 04:55:32;;;;;;;23.25;11.25;;;;;;;;;;10211189;28;20091;-67
2023/01/14 05:00:30;;;;;;;36.20;18.08;;;;;;;;;;10213762;28;20556;-68
2023/01/14 05:05:29;;;;;;;28.40;13.98;;;;;;;;;;10208511;28;20502;-66
2023/01/14 05:10:29;;;;;;;38.15;12.43;;;;;;;;;;10213135;28;20070;-68
2023/01/14 05:15:28;;;;;;;23.60;10.77;;;;;;;;;;10214854;28;20092;-68
2023/01/14 05:20:28;;;;;;;21.45;11.23;;;;;;;;;;10211990;28;20064;-68
2023/01/14 05:25:26;;;;;;;19.88;10.20;;;;;;;;;;10213593;28;20077;-67
2023/01/14 05:30:27;;;;;;;85.03;42.60;;;;;;;;;;10212873;28;20084;-68
2023/01/14 05:35:25;;;;;;;25.63;9.77;;;;;;;;;;10213335;28;20065;-68
2023/01/14 05:40:24;;;;;;;16.00;9.70;;;;;;;;;;10208552;28;20065;-67
2023/01/14 05:45:41;;;;;;;27.63;11.63;;;;;;;;;;10213892;28;20498;-67
2023/01/14 05:50:41;;;;;;;26.30;11.60;;;;;;;;;;10213820;28;20076;-67
2023/01/14 05:55:39;;;;;;;21.95;11.98;;;;;;;;;;10210994;28;20061;-66
2023/01/14 06:11:11;;;;;;;26.35;13.35;;;;;;;;;;10213474;28;20137;-67
2023/01/14 06:16:09;;;;;;;20.70;10.90;;;;;;;;;;10211841;28;20483;-67
2023/01/14 06:21:09;;;;;;;20.33;10.15;;;;;;;;;;10212572;28;20069;-67
2023/01/14 06:26:11;;;;;;;27.23;11.07;;;;;;;;;;10207675;28;20069;-68
2023/01/14 06:31:10;;;;;;;20.58;13.75;;;;;;;;;;10204016;28;20082;-68
2023/01/14 06:36:10;;;;;;;97.75;65.35;;;;;;;;;;10209575;28;20480;-67
2023/01/14 06:41:10;;;;;;;34.08;23.55;;;;;;;;;;10212552;28;20522;-69
2023/01/14 06:46:08;;;;;;;34.47;13.68;;;;;;;;;;10211496;28;20084;-69
2023/01/14 06:51:07;;;;;;;24.38;13.82;;;;;;;;;;10213497;28;20801;-68
2023/01/14 06:56:08;;;;;;;22.85;12.07;;;;;;;;;;10214934;28;20463;-68
2023/01/14 07:01:06;;;;;;;18.08;11.93;;;;;;;;;;10210943;28;20072;-69
2023/01/14 07:06:05;;;;;;;28.55;17.88;;;;;;;;;;10209079;28;20081;-69
2023/01/14 07:11:04;;;;;;;19.70;10.07;;;;;;;;;;10208564;28;20084;-68
2023/01/14 07:16:04;;;;;;;18.80;12.27;;;;;;;;;;10213567;28;20092;-67
2023/01/14 07:21:02;;;;;;;18.80;10.60;;;;;;;;;;10207027;28;20064;-66
2023/01/14 07:26:00;;;;;;;20.08;10.25;;;;;;;;;;10209547;28;20080;-67
2023/01/14 07:31:06;;;;;;;24.98;14.13;;;;;;;;;;10209717;28;20081;-68
2023/01/14 07:36:05;;;;;;;23.17;11.48;;;;;;;;;;10209862;28;20065;-68
2023/01/14 07:41:03;;;;;;;18.02;10.90;;;;;;;;;;10214398;28;20089;-67
2023/01/14 07:46:06;;;;;;;24.90;12.30;;;;;;;;;;10209882;28;20549;-68
2023/01/14 07:51:05;;;;;;;33.38;14.38;;;;;;;;;;10202744;28;20069;-66
2023/01/14 07:56:04;;;;;;;31.55;15.82;;;;;;;;;;10211081;28;20104;-67
2023/01/14 08:01:06;;;;;;;32.85;14.25;;;;;;;;;;10204862;28;20072;-67
2023/01/14 08:06:06;;;;;;;33.28;12.27;;;;;;;;;;10213264;28;20136;-66
2023/01/14 08:11:04;;;;;;;54.05;31.33;;;;;;;;;;10210346;28;20076;-67
2023/01/14 08:16:03;;;;;;;31.90;15.73;;;;;;;;;;10217687;28;20091;-66
2023/01/14 08:21:04;;;;;;;27.13;14.82;;;;;;;;;;10206937;28;20811;-66
2023/01/14 08:26:03;;;;;;;33.80;13.80;;;;;;;;;;10206237;28;20069;-67
2023/01/14 08:31:02;;;;;;;29.27;13.85;;;;;;;;;;10203858;28;20089;-68
2023/01/14 08:36:06;;;;;;;43.08;18.48;;;;;;;;;;10207074;28;20061;-66
2023/01/14 08:41:04;;;;;;;37.60;23.88;;;;;;;;;;10210950;28;20065;-67
2023/01/14 08:46:03;;;;;;;30.50;16.83;;;;;;;;;;10210444;28;20525;-66
2023/01/14 08:51:02;;;;;;;52.50;37.85;;;;;;;;;;10213709;28;20072;-68
2023/01/14 08:56:02;;;;;;;42.20;22.58;;;;;;;;;;10215368;28;20073;-67
2023/01/14 09:01:01;;;;;;;37.03;15.48;;;;;;;;;;10211718;28;20089;-66
2023/01/14 09:06:01;;;;;;;56.67;33.30;;;;;;;;;;10211103;28;20526;-66
2023/01/14 09:21:33;;;;;;;77.25;32.33;;;;;;;;;;10209793;28;20069;-66
2023/01/14 09:26:32;;;;;;;35.80;19.85;;;;;;;;;;10215068;28;20586;-67
2023/01/14 09:31:31;;;;;;;45.53;24.75;;;;;;;;;;10205674;28;20076;-68
2023/01/14 09:36:30;;;;;;;88.80;37.78;;;;;;;;;;10208732;28;20076;-68
2023/01/14 09:41:30;;;;;;;78.15;38.80;;;;;;;;;;10208555;28;20077;-68
2023/01/14 09:46:28;;;;;;;74.45;31.23;;;;;;;;;;10212854;28;20069;-68
2023/01/14 09:51:40;;;;;;;114.03;53.47;;;;;;;;;;10213011;28;20073;-68
2023/01/14 09:56:40;;;;;;;136.02;69.10;;;;;;;;;;10214342;28;20073;-67
2023/01/14 10:01:41;;;;;;;56.50;29.90;;;;;;;;;;10214570;28;20499;-67
2023/01/14 10:06:42;;;;;;;59.13;33.35;;;;;;;;;;10211812;28;20073;-68
2023/01/14 10:11:43;;;;;;;62.92;28.85;;;;;;;;;;10219771;28;20073;-69
2023/01/14 10:16:42;;;;;;;54.78;27.33;;;;;;;;;;10218139;28;20065;-67
2023/01/14 10:21:44;;;;;;;38.20;27.40;;;;;;;;;;10216279;28;20061;-68
2023/01/14 10:26:44;;;;;;;29.77;20.55;;;;;;;;;;10213321;28;20078;-67
2023/01/14 10:31:44;;;;;;;65.43;44.17;;;;;;;;;;10214094;28;20499;-68
2023/01/14 10:36:44;;;;;;;109.15;63.33;;;;;;;;;;10209243;28;20080;-67
2023/01/14 10:41:51;;;;;;;42.40;25.13;;;;;;;;;;10213175;28;20073;-67
2023/01/14 10:46:49;;;;;;;56.78;45.28;;;;;;;;;;10219830;28;20187;-69
2023/01/14 10:51:50;;;;;;;45.08;28.48;;;;;;;;;;10208507;28;20088;-68
2023/01/14 10:56:50;;;;;;;41.90;31.90;;;;;;;;;;10213447;28;20072;-68
2023/01/14 11:01:48;;;;;;;43.05;28.77;;;;;;;;;;10214610;28;20096;-68
2023/01/14 11:06:46;;;;;;;26.83;18.48;;;;;;;;;;10207613;28;20088;-68
2023/01/14 11:11:46;;;;;;;38.22;27.30;;;;;;;;;;10209563;28;20073;-68
2023/01/14 11:16:44;;;;;;;37.67;27.25;;;;;;;;;;10212453;28;20076;-68
2023/01/14 11:21:43;;;;;;;59.80;43.28;;;;;;;;;;10209911;28;20100;-67
2023/01/14 11:26:42;;;;;;;29.23;18.45;;;;;;;;;;10210731;28;20073;-68
2023/01/14 11:31:41;;;;;;;47.42;27.63;;;;;;;;;;10209307;28;20081;-68
2023/01/14 11:36:40;;;;;;;59.67;34.40;;;;;;;;;;10207806;28;20064;-68
2023/01/14 11:41:39;;;;;;;54.75;28.98;;;;;;;;;;10208319;28;20074;-68
2023/01/14 11:46:44;;;;;;;76.60;33.53;;;;;;;;;;10208460;28;20467;-66
2023/01/14 11:51:56;;;;;;;86.63;41.38;;;;;;;;;;10208674;28;20492;-67
2023/01/14 11:56:54;;;;;;;41.90;22.70;;;;;;;;;;10210701;28;20057;-67
2023/01/14 12:01:56;;;;;;;62.85;31.85;;;;;;;;;;10207841;28;20487;-67
2023/01/14 12:06:55;;;;;;;25.65;16.80;;;;;;;;;;10210601;28;20653;-67
2023/01/14 12:11:58;;;;;;;40.92;26.05;;;;;;;;;;10207379;28;20077;-67
2023/01/14 12:17:01;;;;;;;28.88;19.48;;;;;;;;;;10207599;28;20057;-67
2023/01/14 12:22:02;;;;;;;61.78;33.20;;;;;;;;;;10210581;28;20073;-67
2023/01/14 12:27:02;;;;;;;30.50;20.63;;;;;;;;;;10215677;28;20481;-67
2023/01/14 12:32:06;;;;;;;19.77;16.30;;;;;;;;;;10215087;28;20562;-68
2023/01/14 12:37:06;;;;;;;29.15;18.55;;;;;;;;;;10216194;28;20084;-68
2023/01/14 12:47:35;;;;;;;29.25;23.10;;;;;;;;;;10213900;28;20077;-68
2023/01/14 12:52:34;;;;;;;25.45;17.95;;;;;;;;;;10211260;28;20104;-68
2023/01/14 12:57:34;;;;;;;31.15;22.45;;;;;;;;;;10212082;28;20578;-68
2023/01/14 13:02:34;;;;;;;32.15;26.52;;;;;;;;;;10215183;28;20480;-67
2023/01/14 13:07:36;;;;;;;37.55;30.92;;;;;;;;;;10214813;28;20088;-68
2023/01/14 13:12:36;;;;;;;79.50;62.47;;;;;;;;;;10212588;28;20077;-66
2023/01/14 13:17:35;;;;;;;31.02;25.05;;;;;;;;;;10217290;28;20072;-67
2023/01/14 13:22:48;;;;;;;37.33;28.73;;;;;;;;;;10217188;28;20088;-67
2023/01/14 13:27:47;;;;;;;53.50;36.58;;;;;;;;;;10215296;28;20498;-67
2023/01/14 13:32:52;;;;;;;72.28;52.55;;;;;;;;;;10219912;28;20546;-67
2023/01/14 13:37:53;;;;;;;64.35;50.13;;;;;;;;;;10212846;28;20061;-67
2023/01/14 13:42:56;;;;;;;45.95;34.85;;;;;;;;;;10218863;28;20073;-67
2023/01/14 13:47:55;;;;;;;58.65;43.38;;;;;;;;;;10213651;28;20065;-67
2023/01/14 13:52:59;;;;;;;71.32;55.65;;;;;;;;;;10208627;28;20081;-67
2023/01/14 13:58:00;;;;;;;68.33;51.80;;;;;;;;;;10212166;28;20081;-67
2023/01/14 14:03:22;;;;;;;176.60;118.53;;;;;;;;;;10213953;28;20069;-68
2023/01/14 14:08:26;;;;;;;80.07;64.95;;;;;;;;;;10214714;28;20072;-66
2023/01/14 14:18:48;;;;;;;47.25;36.53;;;;;;;;;;10210451;28;20068;-67
2023/01/14 14:23:50;;;;;;;93.13;69.68;;;;;;;;;;10215470;28;20076;-66
2023/01/14 14:28:50;;;;;;;62.67;46.60;;;;;;;;;;10212421;28;20085;-67
2023/01/14 14:33:59;;;;;;;71.63;50.10;;;;;;;;;;10211654;28;20080;-66
2023/01/14 14:39:00;;;;;;;50.30;37.88;;;;;;;;;;10211745;28;20078;-67
2023/01/14 14:43:59;;;;;;;39.17;28.35;;;;;;;;;;10209432;28;20042;-66
2023/01/14 14:49:00;;;;;;;59.67;43.65;;;;;;;;;;10212446;28;20073;-67
2023/01/14 14:54:00;;;;;;;59.28;40.30;;;;;;;;;;10211321;28;20510;-67
2023/01/14 14:58:58;;;;;;;45.63;36.83;;;;;;;;;;10213407;28;20065;-68
2023/01/14 15:03:57;;;;;;;41.55;28.92;;;;;;;;;;10208569;28;20486;-68
2023/01/14 15:08:57;;;;;;;36.58;26.00;;;;;;;;;;10211379;28;20096;-67
2023/01/14 15:13:56;;;;;;;49.40;38.25;;;;;;;;;;10208154;28;20080;-68
2023/01/14 15:18:56;;;;;;;50.22;40.25;;;;;;;;;;10208729;28;20045;-67
2023/01/14 15:23:57;;;;;;;49.15;35.45;;;;;;;;;;10209364;28;20065;-66
2023/01/14 15:28:55;;;;;;;41.53;34.38;;;;;;;;;;10214625;28;20085;-68
2023/01/14 15:34:05;;;;;;;45.50;34.22;;;;;;;;;;10211549;28;20069;-67
2023/01/14 15:39:04;;;;;;;44.00;35.38;;;;;;;;;;10211578;28;20065;-67
2023/01/14 15:44:03;;;;;;;35.90;28.60;;;;;;;;;;10208790;28;20072;-67
2023/01/14 15:49:06;;;;;;;71.38;50.42;;;;;;;;;;10211549;28;20081;-67
2023/01/14 15:54:22;;;;;;;60.03;46.67;;;;;;;;;;10207995;28;20095;-65
2023/01/14 15:59:22;;;;;;;43.58;33.08;;;;;;;;;;10206374;28;20069;-68
2023/01/14 16:04:21;;;;;;;55.55;41.40;;;;;;;;;;10218910;28;20069;-68
2023/01/14 16:09:20;;;;;;;138.80;89.68;;;;;;;;;;10207980;28;20057;-67
2023/01/14 16:14:22;;;;;;;66.05;50.58;;;;;;;;;;10215918;28;20586;-67
2023/01/14 16:19:20;;;;;;;80.72;57.45;;;;;;;;;;10217216;28;20092;-68
2023/01/14 16:24:19;;;;;;;64.95;51.88;;;;;;;;;;10219690;28;20481;-67
2023/01/14 16:29:17;;;;;;;93.13;76.43;;;;;;;;;;10218994;28;20087;-66
2023/01/14 16:34:17;;;;;;;59.15;41.90;;;;;;;;;;10217192;28;20073;-66
2023/01/14 16:39:16;;;;;;;30.33;24.58;;;;;;;;;;10214661;28;20095;-67
2023/01/14 16:44:15;;;;;;;31.10;25.33;;;;;;;;;;10213967;28;20069;-68
2023/01/14 16:49:14;;;;;;;26.45;20.88;;;;;;;;;;10219237;28;20074;-68
2023/01/14 16:54:15;;;;;;;34.90;27.85;;;;;;;;;;10212915;28;20084;-67
2023/01/14 16:59:14;;;;;;;30.38;25.55;;;;;;;;;;10215825;28;20069;-68
2023/01/14 17:04:13;;;;;;;42.67;32.10;;;;;;;;;;10214986;28;20073;-66
2023/01/14 17:09:11;;;;;;;46.80;36.17;;;;;;;;;;10214661;28;20061;-67
2023/01/14 17:14:11;;;;;;;51.88;40.75;;;;;;;;;;10220945;28;20077;-67
2023/01/14 17:19:09;;;;;;;40.15;32.38;;;;;;;;;;10211899;28;20469;-67
2023/01/14 17:24:09;;;;;;;84.55;50.35;;;;;;;;;;10217828;28;20490;-66
2023/01/14 17:29:07;;;;;;;36.60;31.33;;;;;;;;;;10214239;28;20088;-66
2023/01/14 17:34:10;;;;;;;48.42;35.38;;;;;;;;;;10218851;28;20073;-67
2023/01/14 17:39:09;;;;;;;32.20;27.52;;;;;;;;;;10220559;28;20069;-65
2023/01/14 17:44:08;;;;;;;143.80;77.97;;;;;;;;;;10223955;28;20077;-66
2023/01/14 17:49:06;;;;;;;53.78;35.00;;;;;;;;;;10226239;28;20073;-66
2023/01/14 17:54:06;;;;;;;47.75;32.72;;;;;;;;;;10220340;28;20064;-67
2023/01/14 17:59:04;;;;;;;45.35;31.33;;;;;;;;;;10215233;28;20069;-67
2023/01/14 18:04:04;;;;;;;70.93;54.20;;;;;;;;;;10215654;28;20061;-68
2023/01/14 18:09:02;;;;;;;145.57;107.65;;;;;;;;;;10215438;28;20061;-68
2023/01/14 18:14:02;;;;;;;231.23;173.32;;;;;;;;;;10213345;28;20084;-67
2023/01/14 18:19:01;;;;;;;187.13;141.40;;;;;;;;;;10207230;28;20065;-67
2023/01/14 18:23:59;;;;;;;87.65;59.17;;;;;;;;;;10207670;28;20061;-68
2023/01/14 18:28:58;;;;;;;51.95;40.15;;;;;;;;;;10214509;28;20081;-67
2023/01/14 18:33:59;;;;;;;92.22;71.40;;;;;;;;;;10216070;28;20070;-67
2023/01/14 18:38:57;;;;;;;27.13;22.60;;;;;;;;;;10202914;28;20073;-67
2023/01/14 18:43:56;;;;;;;104.07;78.25;;;;;;;;;;10204578;28;20073;-67
2023/01/14 18:48:55;;;;;;;198.20;153.35;;;;;;;;;;10209402;28;20068;-66
2023/01/14 18:53:58;;;;;;;70.55;54.88;;;;;;;;;;10215057;28;20077;-67
2023/01/14 18:58:59;;;;;;;32.03;25.80;;;;;;;;;;10213658;28;20074;-67
2023/01/14 19:03:58;;;;;;;112.38;91.72;;;;;;;;;;10209533;28;20499;-66
2023/01/14 19:08:57;;;;;;;112.90;88.22;;;;;;;;;;10211226;28;20479;-66
2023/01/14 19:13:56;;;;;;;64.03;46.38;;;;;;;;;;10210944;28;20069;-67
2023/01/14 19:18:55;;;;;;;139.30;105.88;;;;;;;;;;10216809;28;20075;-68
2023/01/14 19:23:53;;;;;;;85.68;66.35;;;;;;;;;;10218737;28;20069;-68
2023/01/14 19:28:52;;;;;;;65.97;43.08;;;;;;;;;;10208150;28;20539;-68
2023/01/14 19:33:53;;;;;;;48.20;35.22;;;;;;;;;;10208778;28;20072;-67
2023/01/14 19:38:51;;;;;;;59.00;43.92;;;;;;;;;;10212295;28;20087;-67
2023/01/14 19:43:49;;;;;;;60.85;45.25;;;;;;;;;;10206073;28;20065;-67
2023/01/14 19:48:49;;;;;;;91.80;68.88;;;;;;;;;;10209059;28;20073;-67
2023/01/14 19:53:48;;;;;;;63.17;45.38;;;;;;;;;;10207530;28;20073;-68
2023/01/14 19:58:47;;;;;;;47.00;34.30;;;;;;;;;;10211145;28;20076;-68
2023/01/14 20:03:45;;;;;;;39.00;27.58;;;;;;;;;;10208850;28;20069;-68
2023/01/14 20:08:45;;;;;;;83.80;54.72;;;;;;;;;;10208071;28;20912;-67
2023/01/14 20:13:47;;;;;;;61.35;45.10;;;;;;;;;;10208033;28;20073;-68
2023/01/14 20:18:45;;;;;;;39.45;29.63;;;;;;;;;;10205284;28;20506;-68
2023/01/14 20:23:44;;;;;;;59.28;44.40;;;;;;;;;;10208962;28;20070;-68
2023/01/14 20:28:43;;;;;;;91.35;64.85;;;;;;;;;;10219809;28;20109;-68
2023/01/14 20:33:41;;;;;;;77.63;55.95;;;;;;;;;;10206778;28;20080;-68
2023/01/14 20:38:40;;;;;;;58.78;44.80;;;;;;;;;;10213649;28;20587;-68
2023/01/14 20:43:40;;;;;;;50.33;35.83;;;;;;;;;;10202180;28;20061;-68
2023/01/14 20:48:43;;;;;;;29.30;21.52;;;;;;;;;;10209064;28;20471;-69
2023/01/14 20:53:41;;;;;;;92.43;63.05;;;;;;;;;;10214494;28;20073;-67
2023/01/14 21:04:00;;;;;;;81.22;47.97;;;;;;;;;;10217072;28;20073;-67
2023/01/14 21:09:03;;;;;;;74.60;42.78;;;;;;;;;;10212923;28;20092;-66
2023/01/14 21:24:35;;;;;;;144.88;77.03;;;;;;;;;;10211847;28;20077;-68
2023/01/14 21:29:35;;;;;;;123.13;65.40;;;;;;;;;;10214106;28;20089;-67
2023/01/14 21:34:33;;;;;;;85.65;43.88;;;;;;;;;;10213452;28;20070;-68
2023/01/14 21:39:31;;;;;;;134.65;68.53;;;;;;;;;;10211680;28;20502;-67
2023/01/14 21:44:29;;;;;;;154.38;76.38;;;;;;;;;;10209711;28;20439;-68
2023/01/14 21:49:52;;;;;;;106.60;58.53;;;;;;;;;;10211872;28;20068;-68
2023/01/14 21:54:50;;;;;;;80.60;54.53;;;;;;;;;;10209885;28;20498;-67
2023/01/14 21:59:49;;;;;;;33.78;28.05;;;;;;;;;;10210799;28;20468;-67
2023/01/14 22:04:48;;;;;;;40.92;33.63;;;;;;;;;;10210099;28;20072;-68
2023/01/14 22:09:46;;;;;;;37.58;31.58;;;;;;;;;;10211979;28;20072;-68
2023/01/14 22:14:45;;;;;;;41.90;33.65;;;;;;;;;;10209943;28;20192;-68
2023/01/14 22:19:43;;;;;;;48.42;35.85;;;;;;;;;;10212459;28;20061;-67
2023/01/14 22:24:43;;;;;;;30.83;26.00;;;;;;;;;;10210209;28;20463;-68
2023/01/14 22:29:41;;;;;;;45.28;36.58;;;;;;;;;;10211199;28;20077;-67
2023/01/14 22:34:39;;;;;;;38.35;29.38;;;;;;;;;;10210118;28;20073;-67
2023/01/14 22:39:37;;;;;;;39.85;30.73;;;;;;;;;;10211822;28;20088;-67
2023/01/14 22:44:37;;;;;;;26.45;20.00;;;;;;;;;;10209515;28;20061;-67
2023/01/14 22:49:36;;;;;;;30.20;21.20;;;;;;;;;;10210201;28;20652;-68
2023/01/14 22:54:34;;;;;;;39.00;28.02;;;;;;;;;;10209108;28;20065;-67
2023/01/14 22:59:36;;;;;;;27.50;21.95;;;;;;;;;;10210574;28;20503;-68
2023/01/14 23:04:39;;;;;;;21.27;17.25;;;;;;;;;;10205836;28;20073;-68
2023/01/14 23:09:39;;;;;;;27.23;22.73;;;;;;;;;;10207621;28;20077;-67
2023/01/14 23:14:40;;;;;;;39.58;28.38;;;;;;;;;;10207712;28;20843;-67
2023/01/14 23:19:38;;;;;;;25.58;19.33;;;;;;;;;;10208660;28;20072;-68
2023/01/14 23:24:37;;;;;;;35.83;25.45;;;;;;;;;;10210307;28;20057;-68
2023/01/14 23:29:35;;;;;;;25.25;17.27;;;;;;;;;;10208994;28;20100;-69
2023/01/14 23:34:35;;;;;;;24.38;19.40;;;;;;;;;;10208767;28;20161;-67
2023/01/14 23:39:40;;;;;;;26.52;20.70;;;;;;;;;;10209338;28;20062;-67
2023/01/14 23:44:38;;;;;;;26.77;20.67;;;;;;;;;;10209333;28;20076;-67
2023/01/14 23:49:39;;;;;;;20.50;15.75;;;;;;;;;;10208372;28;20072;-67
2023/01/14 23:54:37;;;;;;;25.77;19.83;;;;;;;;;;10209227;28;20069;-67
2023/01/14 23:59:38;;;;;;;18.38;15.50;;;;;;;;;;10207435;28;20491;-68
